sensor_id;sensor_type;location;lat;lon;timestamp;pressure;altitude;pressure_sealevel;temperature;humidity
73558;BME280;61829;53.286;10.434;2023-05-13T00:00:47;101890.44;;;12.27;65.29
73558;BME280;61829;53.286;10.434;2023-05-13T00:03:13;101882.50;;;12.25;65.60
73558;BME280;61829;53.286;10.434;2023-05-13T00:05:39;101885.53;;;12.22;65.64
73558;BME280;61829;53.286;10.434;2023-05-13T00:08:05;101890.28;;;12.20;65.87
73558;BME280;61829;53.286;10.434;2023-05-13T00:10:34;101889.09;;;12.15;65.97
73558;BME280;61829;53.286;10.434;2023-05-13T00:13:00;101879.63;;;12.10;66.14
73558;BME280;61829;53.286;10.434;2023-05-13T00:15:27;101891.63;;;12.08;66.31
73558;BME280;61829;53.286;10.434;2023-05-13T00:17:53;101885.88;;;12.03;66.42
73558;BME280;61829;53.286;10.434;2023-05-13T00:20:19;101887.06;;;12.00;66.62
73558;BME280;61829;53.286;10.434;2023-05-13T00:22:44;101881.97;;;11.97;66.61
73558;BME280;61829;53.286;10.434;2023-05-13T00:25:10;101883.19;;;11.95;66.44
73558;BME280;61829;53.286;10.434;2023-05-13T00:27:37;101878.28;;;11.90;67.16
73558;BME280;61829;53.286;10.434;2023-05-13T00:30:04;101884.72;;;11.89;66.79
73558;BME280;61829;53.286;10.434;2023-05-13T00:32:30;101879.91;;;11.83;67.27
73558;BME280;61829;53.286;10.434;2023-05-13T00:34:56;101884.81;;;11.79;67.19
73558;BME280;61829;53.286;10.434;2023-05-13T00:37:22;101886.81;;;11.77;67.36
73558;BME280;61829;53.286;10.434;2023-05-13T00:39:48;101887.16;;;11.74;67.63
73558;BME280;61829;53.286;10.434;2023-05-13T00:42:14;101874.84;;;11.72;67.61
73558;BME280;61829;53.286;10.434;2023-05-13T00:44:43;101882.44;;;11.68;67.25
73558;BME280;61829;53.286;10.434;2023-05-13T00:47:10;101888.50;;;11.62;68.19
73558;BME280;61829;53.286;10.434;2023-05-13T00:49:36;101884.47;;;11.58;68.62
73558;BME280;61829;53.286;10.434;2023-05-13T00:52:03;101889.00;;;11.57;68.64
73558;BME280;61829;53.286;10.434;2023-05-13T00:54:30;101885.97;;;11.52;68.44
73558;BME280;61829;53.286;10.434;2023-05-13T00:56:56;101888.31;;;11.47;67.94
73558;BME280;61829;53.286;10.434;2023-05-13T00:59:25;101886.09;;;11.42;68.87
73558;BME280;61829;53.286;10.434;2023-05-13T01:09:43;101884.34;;;11.25;68.98
73558;BME280;61829;53.286;10.434;2023-05-13T01:12:17;101884.81;;;11.20;69.85
73558;BME280;61829;53.286;10.434;2023-05-13T01:14:51;101882.31;;;11.19;69.41
73558;BME280;61829;53.286;10.434;2023-05-13T01:17:23;101886.19;;;11.16;69.39
73558;BME280;61829;53.286;10.434;2023-05-13T01:19:56;101892.75;;;11.14;69.63
73558;BME280;61829;53.286;10.434;2023-05-13T01:22:24;101884.13;;;11.10;69.30
73558;BME280;61829;53.286;10.434;2023-05-13T01:24:50;101895.06;;;11.09;69.85
73558;BME280;61829;53.286;10.434;2023-05-13T01:27:16;101891.03;;;11.05;69.87
73558;BME280;61829;53.286;10.434;2023-05-13T01:29:43;101892.50;;;10.99;70.56
73558;BME280;61829;53.286;10.434;2023-05-13T01:32:10;101895.69;;;10.94;70.35
73558;BME280;61829;53.286;10.434;2023-05-13T01:34:39;101900.88;;;10.88;70.94
73558;BME280;61829;53.286;10.434;2023-05-13T01:37:06;101905.59;;;10.86;70.80
73558;BME280;61829;53.286;10.434;2023-05-13T01:39:33;101898.13;;;10.79;71.22
73558;BME280;61829;53.286;10.434;2023-05-13T01:42:02;101905.72;;;10.76;71.01
73558;BME280;61829;53.286;10.434;2023-05-13T01:44:29;101903.47;;;10.71;71.76
73558;BME280;61829;53.286;10.434;2023-05-13T01:46:55;101902.41;;;10.64;71.46
73558;BME280;61829;53.286;10.434;2023-05-13T01:49:21;101904.59;;;10.61;71.97
73558;BME280;61829;53.286;10.434;2023-05-13T01:51:47;101896.81;;;10.57;72.32
73558;BME280;61829;53.286;10.434;2023-05-13T01:54:13;101904.38;;;10.54;72.31
73558;BME280;61829;53.286;10.434;2023-05-13T01:56:39;101899.47;;;10.49;72.51
73558;BME280;61829;53.286;10.434;2023-05-13T01:59:08;101902.31;;;10.48;72.63
73558;BME280;61829;53.286;10.434;2023-05-13T02:01:33;101902.47;;;10.46;72.55
73558;BME280;61829;53.286;10.434;2023-05-13T02:04:00;101898.41;;;10.42;72.86
73558;BME280;61829;53.286;10.434;2023-05-13T02:06:26;101900.56;;;10.39;72.85
73558;BME280;61829;53.286;10.434;2023-05-13T02:08:53;101897.50;;;10.33;73.13
73558;BME280;61829;53.286;10.434;2023-05-13T02:11:19;101896.81;;;10.31;73.28
73558;BME280;61829;53.286;10.434;2023-05-13T02:13:45;101899.28;;;10.25;73.60
73558;BME280;61829;53.286;10.434;2023-05-13T02:16:16;101911.03;;;10.24;73.58
73558;BME280;61829;53.286;10.434;2023-05-13T02:18:42;101902.56;;;10.19;73.58
73558;BME280;61829;53.286;10.434;2023-05-13T02:21:08;101900.03;;;10.17;74.47
73558;BME280;61829;53.286;10.434;2023-05-13T02:23:34;101901.91;;;10.17;74.52
73558;BME280;61829;53.286;10.434;2023-05-13T02:26:00;101899.78;;;10.10;74.42
73558;BME280;61829;53.286;10.434;2023-05-13T02:28:29;101899.44;;;10.05;74.71
73558;BME280;61829;53.286;10.434;2023-05-13T02:30:55;101904.25;;;10.02;75.33
73558;BME280;61829;53.286;10.434;2023-05-13T02:33:22;101906.28;;;10.00;75.12
73558;BME280;61829;53.286;10.434;2023-05-13T02:35:47;101907.75;;;9.94;75.53
73558;BME280;61829;53.286;10.434;2023-05-13T02:38:14;101898.59;;;9.87;75.29
73558;BME280;61829;53.286;10.434;2023-05-13T02:40:39;101911.50;;;9.83;75.71
73558;BME280;61829;53.286;10.434;2023-05-13T02:43:05;101908.59;;;9.77;76.06
73558;BME280;61829;53.286;10.434;2023-05-13T02:45:32;101910.72;;;9.73;75.84
73558;BME280;61829;53.286;10.434;2023-05-13T02:48:00;101899.56;;;9.68;76.54
73558;BME280;61829;53.286;10.434;2023-05-13T02:50:26;101902.56;;;9.65;76.65
73558;BME280;61829;53.286;10.434;2023-05-13T02:52:52;101900.75;;;9.65;77.08
73558;BME280;61829;53.286;10.434;2023-05-13T02:55:18;101901.91;;;9.63;76.69
73558;BME280;61829;53.286;10.434;2023-05-13T02:57:44;101908.56;;;9.59;76.95
73558;BME280;61829;53.286;10.434;2023-05-13T03:00:13;101906.19;;;9.56;77.20
73558;BME280;61829;53.286;10.434;2023-05-13T03:02:41;101902.13;;;9.52;77.26
73558;BME280;61829;53.286;10.434;2023-05-13T03:05:07;101911.31;;;9.49;77.71
73558;BME280;61829;53.286;10.434;2023-05-13T03:07:34;101901.72;;;9.47;77.32
73558;BME280;61829;53.286;10.434;2023-05-13T03:09:59;101896.94;;;9.40;77.55
73558;BME280;61829;53.286;10.434;2023-05-13T03:12:25;101908.13;;;9.36;77.45
73558;BME280;61829;53.286;10.434;2023-05-13T03:14:51;101905.03;;;9.31;77.74
73558;BME280;61829;53.286;10.434;2023-05-13T03:17:17;101909.47;;;9.22;77.97
73558;BME280;61829;53.286;10.434;2023-05-13T03:19:43;101904.00;;;9.14;78.83
73558;BME280;61829;53.286;10.434;2023-05-13T03:22:09;101913.22;;;9.11;78.92
73558;BME280;61829;53.286;10.434;2023-05-13T03:24:34;101918.03;;;9.08;78.50
73558;BME280;61829;53.286;10.434;2023-05-13T03:27:00;101914.09;;;9.02;79.04
73558;BME280;61829;53.286;10.434;2023-05-13T03:29:26;101912.72;;;8.98;80.66
73558;BME280;61829;53.286;10.434;2023-05-13T03:31:52;101917.53;;;8.94;80.51
73558;BME280;61829;53.286;10.434;2023-05-13T03:34:18;101913.69;;;8.97;79.53
73558;BME280;61829;53.286;10.434;2023-05-13T03:36:44;101923.47;;;8.98;79.51
73558;BME280;61829;53.286;10.434;2023-05-13T03:39:10;101920.09;;;8.96;79.60
73558;BME280;61829;53.286;10.434;2023-05-13T03:41:36;101919.25;;;8.95;80.19
73558;BME280;61829;53.286;10.434;2023-05-13T03:44:06;101922.91;;;8.94;79.68
73558;BME280;61829;53.286;10.434;2023-05-13T03:46:32;101916.13;;;8.90;81.52
73558;BME280;61829;53.286;10.434;2023-05-13T03:48:58;101918.81;;;8.90;81.04
73558;BME280;61829;53.286;10.434;2023-05-13T03:51:24;101925.75;;;8.93;80.28
73558;BME280;61829;53.286;10.434;2023-05-13T03:53:50;101925.47;;;8.96;79.74
73558;BME280;61829;53.286;10.434;2023-05-13T03:56:16;101926.28;;;8.96;79.74
73558;BME280;61829;53.286;10.434;2023-05-13T03:58:41;101922.78;;;8.96;81.02
73558;BME280;61829;53.286;10.434;2023-05-13T04:01:07;101920.91;;;8.96;80.14
73558;BME280;61829;53.286;10.434;2023-05-13T04:03:33;101918.94;;;8.98;80.76
73558;BME280;61829;53.286;10.434;2023-05-13T04:06:00;101935.31;;;9.05;80.63
73558;BME280;61829;53.286;10.434;2023-05-13T04:08:26;101925.13;;;9.09;80.34
73558;BME280;61829;53.286;10.434;2023-05-13T04:10:52;101932.91;;;9.12;81.01
73558;BME280;61829;53.286;10.434;2023-05-13T04:13:21;101935.53;;;9.21;80.53
73558;BME280;61829;53.286;10.434;2023-05-13T04:15:47;101931.31;;;9.47;79.02
73558;BME280;61829;53.286;10.434;2023-05-13T04:18:13;101935.78;;;9.74;77.99
73558;BME280;61829;53.286;10.434;2023-05-13T04:20:39;101935.28;;;10.06;77.01
73558;BME280;61829;53.286;10.434;2023-05-13T04:23:05;101934.75;;;10.38;75.89
73558;BME280;61829;53.286;10.434;2023-05-13T04:25:34;101931.78;;;10.67;73.25
73558;BME280;61829;53.286;10.434;2023-05-13T04:28:00;101935.81;;;10.97;72.81
73558;BME280;61829;53.286;10.434;2023-05-13T04:30:26;101931.44;;;11.31;71.13
73558;BME280;61829;53.286;10.434;2023-05-13T04:32:51;101927.81;;;11.64;70.63
73558;BME280;61829;53.286;10.434;2023-05-13T04:35:17;101938.56;;;11.99;68.53
73558;BME280;61829;53.286;10.434;2023-05-13T04:37:44;101931.47;;;12.30;67.31
73558;BME280;61829;53.286;10.434;2023-05-13T04:40:10;101937.22;;;12.52;66.55
73558;BME280;61829;53.286;10.434;2023-05-13T04:42:36;101937.16;;;12.85;65.33
73558;BME280;61829;53.286;10.434;2023-05-13T04:45:02;101941.66;;;13.17;64.79
73558;BME280;61829;53.286;10.434;2023-05-13T04:47:28;101939.50;;;13.52;62.82
73558;BME280;61829;53.286;10.434;2023-05-13T04:49:54;101936.69;;;13.68;61.16
73558;BME280;61829;53.286;10.434;2023-05-13T04:52:23;101934.22;;;13.81;60.95
73558;BME280;61829;53.286;10.434;2023-05-13T04:54:49;101932.81;;;13.93;60.80
73558;BME280;61829;53.286;10.434;2023-05-13T04:57:15;101936.19;;;14.19;59.08
73558;BME280;61829;53.286;10.434;2023-05-13T04:59:41;101937.69;;;14.44;58.55
73558;BME280;61829;53.286;10.434;2023-05-13T05:02:07;101953.78;;;14.84;57.49
73558;BME280;61829;53.286;10.434;2023-05-13T05:04:33;101948.81;;;14.87;56.72
73558;BME280;61829;53.286;10.434;2023-05-13T05:06:59;101951.69;;;14.86;57.03
73558;BME280;61829;53.286;10.434;2023-05-13T05:09:24;101957.34;;;14.99;56.86
73558;BME280;61829;53.286;10.434;2023-05-13T05:11:50;101947.31;;;15.44;56.19
73558;BME280;61829;53.286;10.434;2023-05-13T05:14:16;101943.47;;;15.89;54.30
73558;BME280;61829;53.286;10.434;2023-05-13T05:16:43;101955.44;;;15.95;54.06
73558;BME280;61829;53.286;10.434;2023-05-13T05:19:09;101952.22;;;16.06;53.43
73558;BME280;61829;53.286;10.434;2023-05-13T05:21:37;101949.78;;;16.11;53.03
73558;BME280;61829;53.286;10.434;2023-05-13T05:24:04;101958.38;;;16.36;53.21
73558;BME280;61829;53.286;10.434;2023-05-13T05:26:31;101957.53;;;16.64;52.21
73558;BME280;61829;53.286;10.434;2023-05-13T05:28:57;101962.19;;;16.92;52.16
73558;BME280;61829;53.286;10.434;2023-05-13T05:31:23;101954.38;;;17.17;51.09
73558;BME280;61829;53.286;10.434;2023-05-13T05:33:51;101963.13;;;17.05;50.42
73558;BME280;61829;53.286;10.434;2023-05-13T05:36:19;101966.66;;;17.06;50.89
73558;BME280;61829;53.286;10.434;2023-05-13T05:38:45;101966.13;;;17.17;50.46
73558;BME280;61829;53.286;10.434;2023-05-13T05:41:12;101965.72;;;17.20;50.62
73558;BME280;61829;53.286;10.434;2023-05-13T05:43:38;101966.38;;;17.29;50.84
73558;BME280;61829;53.286;10.434;2023-05-13T05:46:03;101960.59;;;17.45;50.67
73558;BME280;61829;53.286;10.434;2023-05-13T05:48:30;101968.91;;;17.72;49.82
73558;BME280;61829;53.286;10.434;2023-05-13T05:50:56;101971.28;;;17.88;48.63
73558;BME280;61829;53.286;10.434;2023-05-13T05:53:22;101962.97;;;18.23;48.83
73558;BME280;61829;53.286;10.434;2023-05-13T05:55:48;101965.28;;;18.53;47.90
73558;BME280;61829;53.286;10.434;2023-05-13T05:58:15;101952.88;;;18.70;47.22
73558;BME280;61829;53.286;10.434;2023-05-13T06:00:43;101963.59;;;18.85;47.06
73558;BME280;61829;53.286;10.434;2023-05-13T06:03:12;101970.13;;;18.97;45.76
73558;BME280;61829;53.286;10.434;2023-05-13T06:05:38;101966.97;;;18.74;45.37
73558;BME280;61829;53.286;10.434;2023-05-13T06:08:04;101965.50;;;18.38;46.12
73558;BME280;61829;53.286;10.434;2023-05-13T06:10:30;101965.47;;;18.25;46.50
73558;BME280;61829;53.286;10.434;2023-05-13T06:12:56;101969.25;;;18.37;46.95
73558;BME280;61829;53.286;10.434;2023-05-13T06:15:21;101969.47;;;18.42;46.01
73558;BME280;61829;53.286;10.434;2023-05-13T06:17:48;101968.44;;;18.56;45.71
73558;BME280;61829;53.286;10.434;2023-05-13T06:20:13;101969.50;;;18.82;45.83
73558;BME280;61829;53.286;10.434;2023-05-13T06:22:39;101968.22;;;18.98;45.46
73558;BME280;61829;53.286;10.434;2023-05-13T06:25:07;101973.28;;;18.94;44.86
73558;BME280;61829;53.286;10.434;2023-05-13T06:27:33;101960.59;;;19.26;45.39
73558;BME280;61829;53.286;10.434;2023-05-13T06:29:59;101965.28;;;18.93;44.61
73558;BME280;61829;53.286;10.434;2023-05-13T06:32:26;101966.78;;;18.89;45.66
73558;BME280;61829;53.286;10.434;2023-05-13T06:34:51;101968.72;;;19.46;45.40
73558;BME280;61829;53.286;10.434;2023-05-13T06:37:17;101975.41;;;19.57;43.51
73558;BME280;61829;53.286;10.434;2023-05-13T06:39:44;101977.25;;;19.77;43.94
73558;BME280;61829;53.286;10.434;2023-05-13T06:42:10;101969.06;;;20.08;43.29
73558;BME280;61829;53.286;10.434;2023-05-13T06:44:36;101983.06;;;20.57;42.21
73558;BME280;61829;53.286;10.434;2023-05-13T06:47:02;101982.78;;;20.65;41.24
73558;BME280;61829;53.286;10.434;2023-05-13T06:49:29;101982.91;;;20.45;42.23
73558;BME280;61829;53.286;10.434;2023-05-13T06:51:56;101982.84;;;20.58;41.26
73558;BME280;61829;53.286;10.434;2023-05-13T06:54:22;101978.41;;;20.57;41.27
73558;BME280;61829;53.286;10.434;2023-05-13T06:56:48;101985.19;;;20.80;41.39
73558;BME280;61829;53.286;10.434;2023-05-13T06:59:13;101972.38;;;21.36;40.57
73558;BME280;61829;53.286;10.434;2023-05-13T07:01:40;101971.59;;;21.84;39.80
73558;BME280;61829;53.286;10.434;2023-05-13T07:04:06;101975.31;;;21.41;39.99
73558;BME280;61829;53.286;10.434;2023-05-13T07:06:32;101972.59;;;21.16;40.09
73558;BME280;61829;53.286;10.434;2023-05-13T07:08:58;101978.28;;;21.39;40.31
73558;BME280;61829;53.286;10.434;2023-05-13T07:11:28;101981.44;;;21.73;39.90
73558;BME280;61829;53.286;10.434;2023-05-13T07:13:57;101971.59;;;21.84;40.06
73558;BME280;61829;53.286;10.434;2023-05-13T07:16:23;101977.63;;;22.04;38.65
73558;BME280;61829;53.286;10.434;2023-05-13T07:18:49;101978.34;;;22.00;38.54
73558;BME280;61829;53.286;10.434;2023-05-13T07:21:15;101984.09;;;22.28;39.04
73558;BME280;61829;53.286;10.434;2023-05-13T07:23:41;101976.63;;;22.71;39.08
73558;BME280;61829;53.286;10.434;2023-05-13T07:26:07;101979.72;;;22.74;36.95
73558;BME280;61829;53.286;10.434;2023-05-13T07:28:33;101978.16;;;22.78;37.33
73558;BME280;61829;53.286;10.434;2023-05-13T07:30:59;101985.44;;;22.49;37.70
73558;BME280;61829;53.286;10.434;2023-05-13T07:33:24;101981.47;;;22.03;38.11
73558;BME280;61829;53.286;10.434;2023-05-13T07:35:50;101974.16;;;21.97;37.89
73558;BME280;61829;53.286;10.434;2023-05-13T07:38:16;101970.63;;;21.60;38.55
73558;BME280;61829;53.286;10.434;2023-05-13T07:40:43;101964.81;;;21.86;39.04
73558;BME280;61829;53.286;10.434;2023-05-13T07:43:08;101969.19;;;22.06;38.92
73558;BME280;61829;53.286;10.434;2023-05-13T07:45:34;101963.41;;;21.95;38.91
73558;BME280;61829;53.286;10.434;2023-05-13T07:48:03;101964.00;;;21.97;38.90
73558;BME280;61829;53.286;10.434;2023-05-13T07:50:30;101974.56;;;21.82;38.85
73558;BME280;61829;53.286;10.434;2023-05-13T07:52:56;101971.34;;;21.55;40.16
73558;BME280;61829;53.286;10.434;2023-05-13T07:55:23;101967.50;;;21.56;39.56
73558;BME280;61829;53.286;10.434;2023-05-13T07:57:49;101972.06;;;21.62;40.26
73558;BME280;61829;53.286;10.434;2023-05-13T08:00:15;101968.22;;;21.51;39.94
73558;BME280;61829;53.286;10.434;2023-05-13T08:02:42;101973.09;;;21.80;40.25
73558;BME280;61829;53.286;10.434;2023-05-13T08:05:09;101968.03;;;21.83;40.32
73558;BME280;61829;53.286;10.434;2023-05-13T08:07:35;101969.13;;;21.94;39.90
73558;BME280;61829;53.286;10.434;2023-05-13T08:10:02;101966.25;;;22.19;39.09
73558;BME280;61829;53.286;10.434;2023-05-13T08:12:27;101966.28;;;22.31;38.48
73558;BME280;61829;53.286;10.434;2023-05-13T08:14:53;101981.09;;;22.30;38.24
73558;BME280;61829;53.286;10.434;2023-05-13T08:17:19;101983.78;;;22.18;39.15
73558;BME280;61829;53.286;10.434;2023-05-13T08:19:45;101973.13;;;22.10;38.99
73558;BME280;61829;53.286;10.434;2023-05-13T08:22:11;101973.19;;;21.91;38.25
73558;BME280;61829;53.286;10.434;2023-05-13T08:24:37;101973.56;;;21.77;39.16
73558;BME280;61829;53.286;10.434;2023-05-13T08:27:06;101978.72;;;22.03;39.74
73558;BME280;61829;53.286;10.434;2023-05-13T08:29:33;101976.09;;;22.08;39.03
73558;BME280;61829;53.286;10.434;2023-05-13T08:31:59;101980.69;;;21.96;39.88
73558;BME280;61829;53.286;10.434;2023-05-13T08:34:25;101976.91;;;21.97;39.11
73558;BME280;61829;53.286;10.434;2023-05-13T08:36:51;101973.03;;;21.86;39.12
73558;BME280;61829;53.286;10.434;2023-05-13T08:39:17;101969.94;;;21.64;39.40
73558;BME280;61829;53.286;10.434;2023-05-13T08:41:45;101978.78;;;21.96;40.31
73558;BME280;61829;53.286;10.434;2023-05-13T08:44:12;101982.28;;;22.04;40.02
73558;BME280;61829;53.286;10.434;2023-05-13T08:46:40;101981.19;;;22.23;40.19
73558;BME280;61829;53.286;10.434;2023-05-13T08:49:09;101973.75;;;22.54;39.34
73558;BME280;61829;53.286;10.434;2023-05-13T08:51:37;101973.63;;;22.72;39.07
73558;BME280;61829;53.286;10.434;2023-05-13T08:54:08;101981.50;;;22.80;38.35
73558;BME280;61829;53.286;10.434;2023-05-13T08:56:34;101978.28;;;22.72;37.49
73558;BME280;61829;53.286;10.434;2023-05-13T08:59:00;101967.41;;;22.65;38.68
73558;BME280;61829;53.286;10.434;2023-05-13T09:01:27;101978.50;;;22.58;39.15
73558;BME280;61829;53.286;10.434;2023-05-13T09:03:58;101974.44;;;22.49;39.17
73558;BME280;61829;53.286;10.434;2023-05-13T09:06:25;101982.00;;;22.77;37.87
73558;BME280;61829;53.286;10.434;2023-05-13T09:08:51;101972.09;;;22.76;38.18
73558;BME280;61829;53.286;10.434;2023-05-13T09:11:17;101979.47;;;22.52;38.23
73558;BME280;61829;53.286;10.434;2023-05-13T09:14:01;101978.97;;;22.55;38.04
73558;BME280;61829;53.286;10.434;2023-05-13T09:16:28;101981.25;;;22.70;38.04
73558;BME280;61829;53.286;10.434;2023-05-13T09:19:04;101975.06;;;22.86;37.05
73558;BME280;61829;53.286;10.434;2023-05-13T09:21:31;101972.34;;;23.10;37.28
73558;BME280;61829;53.286;10.434;2023-05-13T09:26:31;101971.41;;;23.57;36.26
73558;BME280;61829;53.286;10.434;2023-05-13T09:31:43;101971.06;;;23.93;34.44
73558;BME280;61829;53.286;10.434;2023-05-13T09:34:10;101971.00;;;24.05;34.43
73558;BME280;61829;53.286;10.434;2023-05-13T09:36:37;101967.84;;;24.13;33.93
73558;BME280;61829;53.286;10.434;2023-05-13T09:39:04;101969.38;;;24.21;33.38
73558;BME280;61829;53.286;10.434;2023-05-13T09:41:30;101982.03;;;24.22;31.49
73558;BME280;61829;53.286;10.434;2023-05-13T09:43:57;101970.84;;;24.29;32.34
73558;BME280;61829;53.286;10.434;2023-05-13T09:46:24;101965.78;;;24.37;31.41
73558;BME280;61829;53.286;10.434;2023-05-13T09:48:50;101963.41;;;24.58;31.17
73558;BME280;61829;53.286;10.434;2023-05-13T09:51:27;101962.31;;;24.59;30.19
73558;BME280;61829;53.286;10.434;2023-05-13T09:54:04;101957.72;;;24.64;30.49
73558;BME280;61829;53.286;10.434;2023-05-13T09:56:33;101962.81;;;24.56;30.54
73558;BME280;61829;53.286;10.434;2023-05-13T09:59:00;101961.06;;;24.67;30.77
73558;BME280;61829;53.286;10.434;2023-05-13T10:01:27;101943.69;;;24.66;28.73
73558;BME280;61829;53.286;10.434;2023-05-13T10:03:54;101955.53;;;24.67;29.91
73558;BME280;61829;53.286;10.434;2023-05-13T10:06:22;101953.84;;;24.65;30.73
73558;BME280;61829;53.286;10.434;2023-05-13T10:08:50;101950.09;;;24.72;29.78
73558;BME280;61829;53.286;10.434;2023-05-13T10:11:19;101963.53;;;24.68;28.63
73558;BME280;61829;53.286;10.434;2023-05-13T10:14:08;101959.38;;;24.65;30.31
73558;BME280;61829;53.286;10.434;2023-05-13T10:16:34;101957.25;;;24.90;28.90
73558;BME280;61829;53.286;10.434;2023-05-13T10:19:01;101953.38;;;25.07;29.41
73558;BME280;61829;53.286;10.434;2023-05-13T10:21:48;101954.59;;;25.34;28.96
73558;BME280;61829;53.286;10.434;2023-05-13T10:24:15;101948.53;;;25.15;27.02
73558;BME280;61829;53.286;10.434;2023-05-13T10:26:40;101945.00;;;25.02;27.57
73558;BME280;61829;53.286;10.434;2023-05-13T10:29:08;101943.03;;;25.15;29.54
73558;BME280;61829;53.286;10.434;2023-05-13T10:31:34;101934.94;;;25.30;29.79
73558;BME280;61829;53.286;10.434;2023-05-13T10:34:02;101931.44;;;25.62;29.26
73558;BME280;61829;53.286;10.434;2023-05-13T10:39:37;101941.66;;;25.83;27.63
73558;BME280;61829;53.286;10.434;2023-05-13T10:42:41;101934.09;;;25.79;25.94
73558;BME280;61829;53.286;10.434;2023-05-13T10:45:08;101937.59;;;25.69;26.17
73558;BME280;61829;53.286;10.434;2023-05-13T10:47:36;101925.44;;;25.92;25.16
73558;BME280;61829;53.286;10.434;2023-05-13T10:50:25;101938.69;;;25.90;24.27
73558;BME280;61829;53.286;10.434;2023-05-13T10:52:55;101938.44;;;25.91;24.92
73558;BME280;61829;53.286;10.434;2023-05-13T10:55:22;101942.38;;;26.01;25.05
73558;BME280;61829;53.286;10.434;2023-05-13T10:58:13;101927.97;;;25.93;24.40
73558;BME280;61829;53.286;10.434;2023-05-13T11:00:41;101926.59;;;25.96;25.62
73558;BME280;61829;53.286;10.434;2023-05-13T11:03:12;101933.19;;;26.22;25.69
73558;BME280;61829;53.286;10.434;2023-05-13T11:05:40;101928.94;;;26.47;24.93
73558;BME280;61829;53.286;10.434;2023-05-13T11:08:08;101920.63;;;26.41;23.62
73558;BME280;61829;53.286;10.434;2023-05-13T11:10:35;101927.75;;;26.00;23.99
73558;BME280;61829;53.286;10.434;2023-05-13T11:13:20;101924.38;;;25.71;23.74
73558;BME280;61829;53.286;10.434;2023-05-13T11:15:50;101935.97;;;25.46;27.38
73558;BME280;61829;53.286;10.434;2023-05-13T11:18:16;101920.44;;;25.40;26.63
73558;BME280;61829;53.286;10.434;2023-05-13T11:20:51;101914.47;;;25.48;25.54
73558;BME280;61829;53.286;10.434;2023-05-13T11:23:21;101918.16;;;25.59;26.77
73558;BME280;61829;53.286;10.434;2023-05-13T11:26:10;101912.34;;;25.82;23.63
73558;BME280;61829;53.286;10.434;2023-05-13T11:31:22;101917.50;;;25.73;25.45
73558;BME280;61829;53.286;10.434;2023-05-13T11:34:17;101917.38;;;25.85;26.08
73558;BME280;61829;53.286;10.434;2023-05-13T11:39:30;101912.25;;;25.50;24.26
73558;BME280;61829;53.286;10.434;2023-05-13T11:41:57;101903.88;;;25.18;23.64
73558;BME280;61829;53.286;10.434;2023-05-13T11:44:27;101914.19;;;25.05;23.40
73558;BME280;61829;53.286;10.434;2023-05-13T11:52:14;101903.16;;;25.49;23.83
73558;BME280;61829;53.286;10.434;2023-05-13T11:54:56;101908.75;;;25.33;22.75
73558;BME280;61829;53.286;10.434;2023-05-13T11:57:30;101901.59;;;25.31;24.37
73558;BME280;61829;53.286;10.434;2023-05-13T12:00:06;101901.66;;;24.98;24.37
73558;BME280;61829;53.286;10.434;2023-05-13T12:02:35;101911.44;;;24.33;24.03
73558;BME280;61829;53.286;10.434;2023-05-13T12:05:03;101904.72;;;24.29;24.44
73558;BME280;61829;53.286;10.434;2023-05-13T12:07:31;101900.22;;;24.39;24.68
73558;BME280;61829;53.286;10.434;2023-05-13T12:09:58;101899.25;;;24.46;24.41
73558;BME280;61829;53.286;10.434;2023-05-13T12:12:29;101892.78;;;24.74;26.27
73558;BME280;61829;53.286;10.434;2023-05-13T12:14:58;101896.47;;;25.01;25.20
73558;BME280;61829;53.286;10.434;2023-05-13T12:17:27;101901.75;;;25.25;24.85
73558;BME280;61829;53.286;10.434;2023-05-13T12:30:38;101894.56;;;25.73;22.41
73558;BME280;61829;53.286;10.434;2023-05-13T12:33:16;101899.72;;;25.86;24.11
73558;BME280;61829;53.286;10.434;2023-05-13T12:35:43;101894.91;;;25.76;21.75
73558;BME280;61829;53.286;10.434;2023-05-13T12:38:16;101900.59;;;25.65;22.16
73558;BME280;61829;53.286;10.434;2023-05-13T12:40:43;101890.78;;;25.52;22.28
73558;BME280;61829;53.286;10.434;2023-05-13T12:43:10;101892.97;;;25.77;21.31
73558;BME280;61829;53.286;10.434;2023-05-13T12:45:41;101897.06;;;25.96;21.83
73558;BME280;61829;53.286;10.434;2023-05-13T12:48:08;101893.03;;;25.82;21.96
73558;BME280;61829;53.286;10.434;2023-05-13T12:50:34;101891.19;;;25.88;23.09
73558;BME280;61829;53.286;10.434;2023-05-13T12:53:00;101899.28;;;26.00;20.64
73558;BME280;61829;53.286;10.434;2023-05-13T12:55:26;101902.75;;;25.63;21.17
73558;BME280;61829;53.286;10.434;2023-05-13T12:57:59;101898.97;;;25.47;21.52
73558;BME280;61829;53.286;10.434;2023-05-13T13:00:26;101900.16;;;25.51;22.20
73558;BME280;61829;53.286;10.434;2023-05-13T13:02:52;101886.00;;;25.47;21.32
73558;BME280;61829;53.286;10.434;2023-05-13T13:05:19;101903.16;;;25.49;21.73
73558;BME280;61829;53.286;10.434;2023-05-13T13:07:46;101906.28;;;25.31;21.16
73558;BME280;61829;53.286;10.434;2023-05-13T13:10:13;101897.78;;;25.16;21.54
73558;BME280;61829;53.286;10.434;2023-05-13T13:12:42;101897.13;;;25.08;21.11
73558;BME280;61829;53.286;10.434;2023-05-13T13:15:09;101886.47;;;24.95;21.93
73558;BME280;61829;53.286;10.434;2023-05-13T13:17:36;101889.66;;;24.87;22.35
73558;BME280;61829;53.286;10.434;2023-05-13T13:20:02;101889.50;;;24.77;20.95